sensor_id;sensor_type;location;lat;lon;timestamp;pressure;altitude;pressure_sealevel;temperature;humidity
71966;BME280;59836;52.132;5.442;2024-01-15T00:00:11;100353.19;;;2.52;100.00
71966;BME280;59836;52.132;5.442;2024-01-15T00:02:37;100354.47;;;2.49;100.00
71966;BME280;59836;52.132;5.442;2024-01-15T00:05:04;100355.75;;;2.47;100.00
71966;BME280;59836;52.132;5.442;2024-01-15T00:07:31;100354.69;;;2.48;100.00
71966;BME280;59836;52.132;5.442;2024-01-15T00:09:58;100351.44;;;2.46;100.00
71966;BME280;59836;52.132;5.442;2024-01-15T00:12:24;100350.84;;;2.44;100.00
71966;BME280;59836;52.132;5.442;2024-01-15T00:14:51;100350.00;;;2.43;100.00
71966;BME280;59836;52.132;5.442;2024-01-15T00:17:18;100340.34;;;2.42;100.00
71966;BME280;59836;52.132;5.442;2024-01-15T00:19:45;100343.28;;;2.41;100.00
71966;BME280;59836;52.132;5.442;2024-01-15T00:22:11;100345.94;;;2.41;100.00
71966;BME280;59836;52.132;5.442;2024-01-15T00:24:39;100325.00;;;2.38;100.00
71966;BME280;59836;52.132;5.442;2024-01-15T00:27:05;100334.06;;;2.36;100.00
71966;BME280;59836;52.132;5.442;2024-01-15T00:29:32;100329.75;;;2.35;100.00
71966;BME280;59836;52.132;5.442;2024-01-15T00:31:58;100323.81;;;2.33;100.00
71966;BME280;59836;52.132;5.442;2024-01-15T00:34:25;100322.19;;;2.32;100.00
71966;BME280;59836;52.132;5.442;2024-01-15T00:36:52;100319.97;;;2.29;100.00
71966;BME280;59836;52.132;5.442;2024-01-15T00:39:18;100319.38;;;2.27;100.00
71966;BME280;59836;52.132;5.442;2024-01-15T00:41:45;100315.88;;;2.27;100.00
71966;BME280;59836;52.132;5.442;2024-01-15T00:44:12;100318.53;;;2.27;100.00
71966;BME280;59836;52.132;5.442;2024-01-15T00:46:45;100312.38;;;2.26;100.00
71966;BME280;59836;52.132;5.442;2024-01-15T00:49:13;100303.78;;;2.24;100.00
71966;BME280;59836;52.132;5.442;2024-01-15T00:51:40;100295.97;;;2.22;100.00
71966;BME280;59836;52.132;5.442;2024-01-15T00:54:07;100291.66;;;2.21;100.00
71966;BME280;59836;52.132;5.442;2024-01-15T00:56:34;100300.13;;;2.18;100.00
71966;BME280;59836;52.132;5.442;2024-01-15T00:59:01;100301.88;;;2.13;100.00
71966;BME280;59836;52.132;5.442;2024-01-15T01:01:28;100299.44;;;2.11;100.00
71966;BME280;59836;52.132;5.442;2024-01-15T01:03:55;100300.22;;;2.12;100.00
71966;BME280;59836;52.132;5.442;2024-01-15T01:06:22;100296.97;;;2.10;100.00
71966;BME280;59836;52.132;5.442;2024-01-15T01:08:48;100296.38;;;2.08;100.00
71966;BME280;59836;52.132;5.442;2024-01-15T01:11:15;100287.75;;;2.05;100.00
71966;BME280;59836;52.132;5.442;2024-01-15T01:13:42;100284.28;;;2.05;100.00
71966;BME280;59836;52.132;5.442;2024-01-15T01:16:09;100290.88;;;2.02;100.00
71966;BME280;59836;52.132;5.442;2024-01-15T01:18:36;100291.72;;;2.03;100.00
71966;BME280;59836;52.132;5.442;2024-01-15T01:21:03;100283.91;;;2.01;100.00
71966;BME280;59836;52.132;5.442;2024-01-15T01:23:30;100277.75;;;2.01;100.00
71966;BME280;59836;52.132;5.442;2024-01-15T01:25:56;100286.00;;;1.99;100.00
71966;BME280;59836;52.132;5.442;2024-01-15T01:28:23;100286.81;;;2.00;100.00
71966;BME280;59836;52.132;5.442;2024-01-15T01:30:49;100290.31;;;2.00;100.00
71966;BME280;59836;52.132;5.442;2024-01-15T01:33:16;100290.53;;;1.99;100.00
71966;BME280;59836;52.132;5.442;2024-01-15T01:35:43;100292.38;;;1.98;100.00
71966;BME280;59836;52.132;5.442;2024-01-15T01:38:11;100293.41;;;1.97;100.00
71966;BME280;59836;52.132;5.442;2024-01-15T01:40:38;100288.06;;;1.97;100.00
71966;BME280;59836;52.132;5.442;2024-01-15T01:43:09;100293.41;;;1.97;100.00
71966;BME280;59836;52.132;5.442;2024-01-15T01:45:36;100285.19;;;1.99;100.00
71966;BME280;59836;52.132;5.442;2024-01-15T01:48:03;100282.72;;;1.97;100.00
71966;BME280;59836;52.132;5.442;2024-01-15T01:50:31;100282.72;;;1.97;100.00
71966;BME280;59836;52.132;5.442;2024-01-15T01:52:59;100279.47;;;1.95;100.00
71966;BME280;59836;52.132;5.442;2024-01-15T01:55:27;100284.81;;;1.95;100.00
71966;BME280;59836;52.132;5.442;2024-01-15T01:57:56;100275.16;;;1.94;100.00
71966;BME280;59836;52.132;5.442;2024-01-15T02:00:23;100281.09;;;1.96;100.00
71966;BME280;59836;52.132;5.442;2024-01-15T02:02:50;100283.78;;;1.96;100.00
71966;BME280;59836;52.132;5.442;2024-01-15T02:05:19;100278.22;;;1.98;100.00
71966;BME280;59836;52.132;5.442;2024-01-15T02:07:47;100289.25;;;2.01;100.00
71966;BME280;59836;52.132;5.442;2024-01-15T02:10:14;100292.53;;;2.03;100.00
71966;BME280;59836;52.132;5.442;2024-01-15T02:12:42;100293.69;;;2.08;100.00
71966;BME280;59836;52.132;5.442;2024-01-15T02:15:10;100307.44;;;2.11;100.00
71966;BME280;59836;52.132;5.442;2024-01-15T02:17:56;100324.91;;;2.14;100.00
71966;BME280;59836;52.132;5.442;2024-01-15T02:20:24;100309.06;;;2.12;100.00
71966;BME280;59836;52.132;5.442;2024-01-15T02:22:51;100299.19;;;2.13;100.00
71966;BME280;59836;52.132;5.442;2024-01-15T02:25:18;100294.44;;;2.15;100.00
71966;BME280;59836;52.132;5.442;2024-01-15T02:27:46;100289.53;;;2.12;100.00
71966;BME280;59836;52.132;5.442;2024-01-15T02:30:13;100289.53;;;2.12;100.00
71966;BME280;59836;52.132;5.442;2024-01-15T02:32:40;100288.25;;;2.14;100.00
71966;BME280;59836;52.132;5.442;2024-01-15T02:35:07;100294.44;;;2.15;100.00
71966;BME280;59836;52.132;5.442;2024-01-15T02:37:33;100288.03;;;2.16;100.00
71966;BME280;59836;52.132;5.442;2024-01-15T02:40:00;100286.16;;;2.16;100.00
71966;BME280;59836;52.132;5.442;2024-01-15T02:42:27;100282.22;;;2.19;100.00
71966;BME280;59836;52.132;5.442;2024-01-15T02:44:53;100286.75;;;2.18;100.00
71966;BME280;59836;52.132;5.442;2024-01-15T02:47:20;100282.22;;;2.19;100.00
71966;BME280;59836;52.132;5.442;2024-01-15T02:49:46;100276.28;;;2.17;100.00
71966;BME280;59836;52.132;5.442;2024-01-15T02:52:13;100271.53;;;2.19;100.00
71966;BME280;59836;52.132;5.442;2024-01-15T02:54:40;100272.91;;;2.21;100.00
71966;BME280;59836;52.132;5.442;2024-01-15T02:57:06;100277.47;;;2.21;100.00
71966;BME280;59836;52.132;5.442;2024-01-15T02:59:33;100280.16;;;2.21;100.00
71966;BME280;59836;52.132;5.442;2024-01-15T03:02:00;100268.41;;;2.22;100.00
71966;BME280;59836;52.132;5.442;2024-01-15T03:04:26;100275.38;;;2.23;100.00
71966;BME280;59836;52.132;5.442;2024-01-15T03:06:53;100270.03;;;2.23;100.00
71966;BME280;59836;52.132;5.442;2024-01-15T03:09:20;100273.75;;;2.22;100.00
71966;BME280;59836;52.132;5.442;2024-01-15T03:11:46;100272.91;;;2.21;100.00
71966;BME280;59836;52.132;5.442;2024-01-15T03:14:13;100269.44;;;2.21;100.00
71966;BME280;59836;52.132;5.442;2024-01-15T03:16:40;100272.13;;;2.21;100.00
71966;BME280;59836;52.132;5.442;2024-01-15T03:19:06;100277.47;;;2.21;100.00
71966;BME280;59836;52.132;5.442;2024-01-15T03:21:33;100270.47;;;2.20;100.00
71966;BME280;59836;52.132;5.442;2024-01-15T03:24:00;100265.13;;;2.20;100.00
71966;BME280;59836;52.132;5.442;2024-01-15T03:26:26;100259.78;;;2.20;100.00
71966;BME280;59836;52.132;5.442;2024-01-15T03:28:53;100268.84;;;2.19;100.00
71966;BME280;59836;52.132;5.442;2024-01-15T03:31:19;100276.28;;;2.17;100.00
71966;BME280;59836;52.132;5.442;2024-01-15T03:33:46;100279.19;;;2.15;100.00
71966;BME280;59836;52.132;5.442;2024-01-15T03:36:13;100288.03;;;2.16;100.00
71966;BME280;59836;52.132;5.442;2024-01-15T03:38:41;100287.44;;;2.14;100.00
71966;BME280;59836;52.132;5.442;2024-01-15T03:41:08;100298.94;;;2.14;100.00
71966;BME280;59836;52.132;5.442;2024-01-15T03:43:35;100300.56;;;2.15;100.00
71966;BME280;59836;52.132;5.442;2024-01-15T03:46:02;100297.44;;;2.18;100.00
71966;BME280;59836;52.132;5.442;2024-01-15T03:48:28;100286.53;;;2.20;100.00
71966;BME280;59836;52.132;5.442;2024-01-15T03:50:55;100279.09;;;2.22;100.00
71966;BME280;59836;52.132;5.442;2024-01-15T03:53:22;100270.47;;;2.20;100.00
71966;BME280;59836;52.132;5.442;2024-01-15T03:55:49;100264.75;;;2.16;100.00
71966;BME280;59836;52.132;5.442;2024-01-15T03:58:16;100252.66;;;2.14;100.00
71966;BME280;59836;52.132;5.442;2024-01-15T04:00:43;100249.16;;;2.13;100.00
71966;BME280;59836;52.132;5.442;2024-01-15T04:03:10;100252.53;;;2.09;100.00
71966;BME280;59836;52.132;5.442;2024-01-15T04:05:38;100243.94;;;2.06;100.00
71966;BME280;59836;52.132;5.442;2024-01-15T04:08:04;100241.25;;;2.06;100.00
71966;BME280;59836;52.132;5.442;2024-01-15T04:10:31;100231.00;;;2.03;100.00
71966;BME280;59836;52.132;5.442;2024-01-15T04:12:58;100235.19;;;1.99;100.00
71966;BME280;59836;52.132;5.442;2024-01-15T04:15:26;100238.31;;;1.96;100.00
71966;BME280;59836;52.132;5.442;2024-01-15T04:17:52;100222.72;;;1.93;100.00
71966;BME280;59836;52.132;5.442;2024-01-15T04:20:19;100221.66;;;1.94;100.00
71966;BME280;59836;52.132;5.442;2024-01-15T04:22:50;100233.41;;;1.93;100.00
71966;BME280;59836;52.132;5.442;2024-01-15T04:25:17;100225.84;;;1.90;100.00
71966;BME280;59836;52.132;5.442;2024-01-15T04:27:43;100220.72;;;1.88;100.00
71966;BME280;59836;52.132;5.442;2024-01-15T04:30:10;100216.19;;;1.89;100.00
71966;BME280;59836;52.132;5.442;2024-01-15T04:32:37;100219.91;;;1.88;100.00
71966;BME280;59836;52.132;5.442;2024-01-15T04:35:04;100223.63;;;1.87;100.00
71966;BME280;59836;52.132;5.442;2024-01-15T04:37:31;100216.63;;;1.86;100.00
71966;BME280;59836;52.132;5.442;2024-01-15T04:39:57;100218.72;;;1.84;100.00
71966;BME280;59836;52.132;5.442;2024-01-15T04:42:24;100211.75;;;1.83;100.00
71966;BME280;59836;52.132;5.442;2024-01-15T04:44:51;100206.41;;;1.83;100.00
71966;BME280;59836;52.132;5.442;2024-01-15T04:47:17;100207.22;;;1.83;100.00
71966;BME280;59836;52.132;5.442;2024-01-15T04:49:44;100202.09;;;1.82;100.00
71966;BME280;59836;52.132;5.442;2024-01-15T04:52:10;100201.28;;;1.81;100.00
71966;BME280;59836;52.132;5.442;2024-01-15T04:54:37;100201.06;;;1.83;100.00
71966;BME280;59836;52.132;5.442;2024-01-15T04:57:04;100201.28;;;1.81;100.00
71966;BME280;59836;52.132;5.442;2024-01-15T04:59:30;100207.69;;;1.80;100.00
71966;BME280;59836;52.132;5.442;2024-01-15T05:01:57;100205.00;;;1.80;100.00
71966;BME280;59836;52.132;5.442;2024-01-15T05:04:23;100201.06;;;1.83;100.00
71966;BME280;59836;52.132;5.442;2024-01-15T05:06:54;100198.16;;;1.84;100.00
71966;BME280;59836;52.132;5.442;2024-01-15T05:09:21;100201.44;;;1.86;100.00
71966;BME280;59836;52.132;5.442;2024-01-15T05:11:48;100196.88;;;1.87;100.00
71966;BME280;59836;52.132;5.442;2024-01-15T05:14:14;100196.66;;;1.88;100.00
71966;BME280;59836;52.132;5.442;2024-01-15T05:16:48;100200.59;;;1.86;100.00
71966;BME280;59836;52.132;5.442;2024-01-15T05:19:15;100191.97;;;1.84;100.00
71966;BME280;59836;52.132;5.442;2024-01-15T05:21:42;100189.91;;;1.86;100.00
71966;BME280;59836;52.132;5.442;2024-01-15T05:24:08;100179.22;;;1.86;100.00
71966;BME280;59836;52.132;5.442;2024-01-15T05:26:35;100189.91;;;1.86;100.00
71966;BME280;59836;52.132;5.442;2024-01-15T05:29:02;100187.00;;;1.87;100.00
71966;BME280;59836;52.132;5.442;2024-01-15T05:31:28;100187.81;;;1.88;100.00
71966;BME280;59836;52.132;5.442;2024-01-15T05:33:55;100191.91;;;1.90;100.00
71966;BME280;59836;52.132;5.442;2024-01-15T05:36:22;100193.75;;;1.90;100.00
71966;BME280;59836;52.132;5.442;2024-01-15T05:38:49;100188.41;;;1.90;100.00
71966;BME280;59836;52.132;5.442;2024-01-15T05:41:16;100201.31;;;1.93;100.00
71966;BME280;59836;52.132;5.442;2024-01-15T05:43:43;100208.28;;;1.94;100.00
71966;BME280;59836;52.132;5.442;2024-01-15T05:46:10;100192.25;;;1.94;100.00
71966;BME280;59836;52.132;5.442;2024-01-15T05:48:36;100197.59;;;1.94;100.00
71966;BME280;59836;52.132;5.442;2024-01-15T05:51:03;100192.03;;;1.96;100.00
71966;BME280;59836;52.132;5.442;2024-01-15T05:53:30;100191.78;;;1.97;100.00
71966;BME280;59836;52.132;5.442;2024-01-15T05:55:56;100197.97;;;1.98;100.00
71966;BME280;59836;52.132;5.442;2024-01-15T05:58:24;100206.59;;;2.00;100.00
71966;BME280;59836;52.132;5.442;2024-01-15T06:00:50;100209.03;;;2.01;100.00
71966;BME280;59836;52.132;5.442;2024-01-15T06:03:17;100213.31;;;2.02;100.00
71966;BME280;59836;52.132;5.442;2024-01-15T06:05:44;100216.84;;;2.03;100.00
71966;BME280;59836;52.132;5.442;2024-01-15T06:08:10;100210.19;;;2.05;100.00
71966;BME280;59836;52.132;5.442;2024-01-15T06:10:37;100217.41;;;2.05;100.00
71966;BME280;59836;52.132;5.442;2024-01-15T06:13:03;100221.72;;;2.06;100.00
71966;BME280;59836;52.132;5.442;2024-01-15T06:15:30;100200.53;;;2.04;100.00
71966;BME280;59836;52.132;5.442;2024-01-15T06:17:57;100192.97;;;2.01;100.00
71966;BME280;59836;52.132;5.442;2024-01-15T06:20:23;100192.63;;;1.98;100.00
71966;BME280;59836;52.132;5.442;2024-01-15T06:22:50;100193.88;;;1.95;100.00
71966;BME280;59836;52.132;5.442;2024-01-15T06:25:16;100190.88;;;1.91;100.00
71966;BME280;59836;52.132;5.442;2024-01-15T06:27:43;100188.84;;;1.87;100.00
71966;BME280;59836;52.132;5.442;2024-01-15T06:30:10;100187.22;;;1.86;100.00
71966;BME280;59836;52.132;5.442;2024-01-15T06:32:37;100184.56;;;1.86;100.00
71966;BME280;59836;52.132;5.442;2024-01-15T06:35:05;100182.91;;;1.85;100.00
71966;BME280;59836;52.132;5.442;2024-01-15T06:37:32;100192.81;;;1.84;100.00
71966;BME280;59836;52.132;5.442;2024-01-15T06:39:59;100181.88;;;1.86;100.00
71966;BME280;59836;52.132;5.442;2024-01-15T06:42:25;100191.19;;;1.83;100.00
71966;BME280;59836;52.132;5.442;2024-01-15T06:44:52;100187.94;;;1.81;100.00
71966;BME280;59836;52.132;5.442;2024-01-15T06:47:19;100185.47;;;1.80;100.00
71966;BME280;59836;52.132;5.442;2024-01-15T06:49:45;100181.75;;;1.81;100.00
71966;BME280;59836;52.132;5.442;2024-01-15T06:52:12;100181.41;;;1.77;100.00
71966;BME280;59836;52.132;5.442;2024-01-15T06:54:39;100181.41;;;1.77;100.00
71966;BME280;59836;52.132;5.442;2024-01-15T06:57:05;100178.72;;;1.77;100.00
71966;BME280;59836;52.132;5.442;2024-01-15T06:59:34;100175.47;;;1.75;100.00
71966;BME280;59836;52.132;5.442;2024-01-15T07:02:02;100171.97;;;1.74;100.00
71966;BME280;59836;52.132;5.442;2024-01-15T07:04:29;100171.16;;;1.74;100.00
71966;BME280;59836;52.132;5.442;2024-01-15T07:06:55;100170.34;;;1.73;100.00
71966;BME280;59836;52.132;5.442;2024-01-15T07:09:22;100176.25;;;1.75;100.00
71966;BME280;59836;52.132;5.442;2024-01-15T07:11:49;100172.19;;;1.73;100.00
71966;BME280;59836;52.132;5.442;2024-01-15T07:14:16;100174.63;;;1.74;100.00
71966;BME280;59836;52.132;5.442;2024-01-15T07:16:42;100170.34;;;1.73;100.00
71966;BME280;59836;52.132;5.442;2024-01-15T07:19:14;100199.53;;;1.75;100.00
71966;BME280;59836;52.132;5.442;2024-01-15T07:21:40;100213.25;;;1.79;100.00
71966;BME280;59836;52.132;5.442;2024-01-15T07:24:09;100222.88;;;1.80;100.00
71966;BME280;59836;52.132;5.442;2024-01-15T07:26:37;100216.97;;;1.77;100.00
71966;BME280;59836;52.132;5.442;2024-01-15T07:29:04;100204.63;;;1.76;100.00
71966;BME280;59836;52.132;5.442;2024-01-15T07:31:30;100193.81;;;1.71;100.00
71966;BME280;59836;52.132;5.442;2024-01-15T07:33:57;100190.09;;;1.72;100.00
71966;BME280;59836;52.132;5.442;2024-01-15T07:36:24;100197.75;;;1.69;100.00
71966;BME280;59836;52.132;5.442;2024-01-15T07:38:51;100187.28;;;1.67;100.00
71966;BME280;59836;52.132;5.442;2024-01-15T07:41:17;100190.53;;;1.69;100.00
71966;BME280;59836;52.132;5.442;2024-01-15T07:43:44;100187.06;;;1.69;100.00
71966;BME280;59836;52.132;5.442;2024-01-15T07:46:10;100188.44;;;1.71;100.00
71966;BME280;59836;52.132;5.442;2024-01-15T07:48:37;100190.09;;;1.72;100.00
71966;BME280;59836;52.132;5.442;2024-01-15T07:51:04;100204.28;;;1.73;100.00
71966;BME280;59836;52.132;5.442;2024-01-15T07:53:30;100212.06;;;1.74;100.00
71966;BME280;59836;52.132;5.442;2024-01-15T07:55:57;100216.59;;;1.74;100.00
71966;BME280;59836;52.132;5.442;2024-01-15T07:58:24;100200.44;;;1.69;100.00
71966;BME280;59836;52.132;5.442;2024-01-15T08:00:50;100201.69;;;1.66;100.00
71966;BME280;59836;52.132;5.442;2024-01-15T08:03:18;100202.13;;;1.63;100.00
71966;BME280;59836;52.132;5.442;2024-01-15T08:05:45;100205.41;;;1.65;100.00
71966;BME280;59836;52.132;5.442;2024-01-15T08:08:11;100198.56;;;1.69;100.00
71966;BME280;59836;52.132;5.442;2024-01-15T08:10:38;100199.59;;;1.68;100.00
71966;BME280;59836;52.132;5.442;2024-01-15T08:13:05;100194.25;;;1.68;100.00
71966;BME280;59836;52.132;5.442;2024-01-15T08:15:34;100177.63;;;1.66;100.00
71966;BME280;59836;52.132;5.442;2024-01-15T08:18:00;100182.97;;;1.66;100.00
71966;BME280;59836;52.132;5.442;2024-01-15T08:20:27;100185.44;;;1.68;100.00
71966;BME280;59836;52.132;5.442;2024-01-15T08:22:54;100183.56;;;1.68;100.00
71966;BME280;59836;52.132;5.442;2024-01-15T08:25:20;100196.34;;;1.66;100.00
71966;BME280;59836;52.132;5.442;2024-01-15T08:27:47;100196.34;;;1.66;100.00
71966;BME280;59836;52.132;5.442;2024-01-15T08:30:14;100206.00;;;1.67;100.00
71966;BME280;59836;52.132;5.442;2024-01-15T08:32:41;100204.94;;;1.68;100.00
71966;BME280;59836;52.132;5.442;2024-01-15T08:35:09;100214.59;;;1.69;100.00
71966;BME280;59836;52.132;5.442;2024-01-15T08:37:37;100202.88;;;1.70;100.00
71966;BME280;59836;52.132;5.442;2024-01-15T08:40:04;100199.59;;;1.68;100.00
71966;BME280;59836;52.132;5.442;2024-01-15T08:42:31;100197.16;;;1.67;100.00
71966;BME280;59836;52.132;5.442;2024-01-15T08:44:57;100188.09;;;1.68;100.00
71966;BME280;59836;52.132;5.442;2024-01-15T08:47:24;100190.53;;;1.69;100.00
71966;BME280;59836;52.132;5.442;2024-01-15T08:49:52;100194.63;;;1.72;100.00
71966;BME280;59836;52.132;5.442;2024-01-15T08:52:19;100189.03;;;1.73;100.00
71966;BME280;59836;52.132;5.442;2024-01-15T08:54:46;100190.47;;;1.76;100.00
71966;BME280;59836;52.132;5.442;2024-01-15T08:57:13;100199.06;;;1.78;100.00
71966;BME280;59836;52.132;5.442;2024-01-15T08:59:40;100201.50;;;1.80;100.00
71966;BME280;59836;52.132;5.442;2024-01-15T09:02:08;100200.47;;;1.81;100.00
71966;BME280;59836;52.132;5.442;2024-01-15T09:04:34;100196.53;;;1.83;100.00
71966;BME280;59836;52.132;5.442;2024-01-15T09:07:01;100204.56;;;1.83;100.00
71966;BME280;59836;52.132;5.442;2024-01-15T09:09:28;100210.13;;;1.82;100.00
71966;BME280;59836;52.132;5.442;2024-01-15T09:11:55;100215.84;;;1.85;100.00
71966;BME280;59836;52.132;5.442;2024-01-15T09:14:21;100223.63;;;1.87;100.00
71966;BME280;59836;52.132;5.442;2024-01-15T09:17:04;100223.28;;;1.83;100.00
71966;BME280;59836;52.132;5.442;2024-01-15T09:19:30;100214.66;;;1.81;100.00
71966;BME280;59836;52.132;5.442;2024-01-15T09:21:57;100205.59;;;1.82;100.00
71966;BME280;59836;52.132;5.442;2024-01-15T09:24:24;100200.25;;;1.82;100.00
71966;BME280;59836;52.132;5.442;2024-01-15T09:26:54;100203.50;;;1.84;100.00
71966;BME280;59836;52.132;5.442;2024-01-15T09:29:20;100198.97;;;1.85;100.00
71966;BME280;59836;52.132;5.442;2024-01-15T09:31:47;100202.47;;;1.85;100.00
71966;BME280;59836;52.132;5.442;2024-01-15T09:34:14;100208.03;;;1.84;100.00
71966;BME280;59836;52.132;5.442;2024-01-15T09:36:41;100205.94;;;1.86;100.00
71966;BME280;59836;52.132;5.442;2024-01-15T09:39:09;100205.16;;;1.85;100.00
71966;BME280;59836;52.132;5.442;2024-01-15T09:41:38;100201.31;;;1.93;100.00
71966;BME280;59836;52.132;5.442;2024-01-15T09:44:05;100203.66;;;2.01;100.00
71966;BME280;59836;52.132;5.442;2024-01-15T09:46:32;100199.38;;;2.12;100.00
71966;BME280;59836;52.132;5.442;2024-01-15T09:48:59;100203.47;;;2.15;100.00
71966;BME280;59836;52.132;5.442;2024-01-15T09:51:31;100193.22;;;2.12;100.00
71966;BME280;59836;52.132;5.442;2024-01-15T09:53:58;100201.13;;;2.06;100.00
71966;BME280;59836;52.132;5.442;2024-01-15T09:56:24;100197.28;;;2.02;100.00
71966;BME280;59836;52.132;5.442;2024-01-15T09:58:51;100202.28;;;1.99;100.00
71966;BME280;59836;52.132;5.442;2024-01-15T10:01:23;100211.09;;;1.99;100.00
71966;BME280;59836;52.132;5.442;2024-01-15T10:03:50;100210.53;;;1.97;100.00
71966;BME280;59836;52.132;5.442;2024-01-15T10:06:17;100212.16;;;1.98;100.00
71966;BME280;59836;52.132;5.442;2024-01-15T10:08:50;100210.31;;;1.99;100.00
71966;BME280;59836;52.132;5.442;2024-01-15T10:11:17;100224.16;;;2.08;100.00
71966;BME280;59836;52.132;5.442;2024-01-15T10:13:44;100220.69;;;2.19;100.00
71966;BME280;59836;52.132;5.442;2024-01-15T10:16:12;100203.13;;;2.11;100.00
71966;BME280;59836;52.132;5.442;2024-01-15T10:18:39;100204.50;;;2.02;100.00
71966;BME280;59836;52.132;5.442;2024-01-15T10:21:07;100206.59;;;2.00;100.00
71966;BME280;59836;52.132;5.442;2024-01-15T10:23:34;100219.25;;;2.04;100.00
71966;BME280;59836;52.132;5.442;2024-01-15T10:26:03;100216.59;;;2.16;100.00
71966;BME280;59836;52.132;5.442;2024-01-15T10:28:30;100226.06;;;2.31;100.00
71966;BME280;59836;52.132;5.442;2024-01-15T10:30:59;100225.94;;;2.26;100.00
71966;BME280;59836;52.132;5.442;2024-01-15T10:33:26;100225.00;;;2.20;100.00
71966;BME280;59836;52.132;5.442;2024-01-15T10:35:55;100216.84;;;2.15;100.00
71966;BME280;59836;52.132;5.442;2024-01-15T10:38:23;100222.06;;;2.10;100.00
71966;BME280;59836;52.132;5.442;2024-01-15T10:40:54;100223.13;;;2.09;100.00
71966;BME280;59836;52.132;5.442;2024-01-15T10:43:22;100212.66;;;2.07;100.00
71966;BME280;59836;52.132;5.442;2024-01-15T10:45:54;100210.19;;;2.05;100.00
71966;BME280;59836;52.132;5.442;2024-01-15T10:48:20;100210.09;;;2.12;100.00
71966;BME280;59836;52.132;5.442;2024-01-15T10:50:48;100213.25;;;2.21;100.00
71966;BME280;59836;52.132;5.442;2024-01-15T10:53:17;100210.94;;;2.25;100.00
71966;BME280;59836;52.132;5.442;2024-01-15T10:55:44;100218.94;;;2.25;100.00
71966;BME280;59836;52.132;5.442;2024-01-15T10:58:13;100223.84;;;2.28;100.00
71966;BME280;59836;52.132;5.442;2024-01-15T11:00:41;100230.94;;;2.34;100.00
71966;BME280;59836;52.132;5.442;2024-01-15T11:03:08;100229.09;;;2.34;100.00
71966;BME280;59836;52.132;5.442;2024-01-15T11:05:42;100237.13;;;2.34;100.00
71966;BME280;59836;52.132;5.442;2024-01-15T11:08:10;100238.53;;;2.37;100.00
71966;BME280;59836;52.132;5.442;2024-01-15T11:10:45;100239.09;;;2.39;100.00
71966;BME280;59836;52.132;5.442;2024-01-15T11:13:24;100246.34;;;2.39;100.00
71966;BME280;59836;52.132;5.442;2024-01-15T11:16:07;100248.44;;;2.36;100.00
71966;BME280;59836;52.132;5.442;2024-01-15T11:23:43;100243.53;;;2.33;100.00
71966;BME280;59836;52.132;5.442;2024-01-15T11:26:38;100256.91;;;2.33;100.00
71966;BME280;59836;52.132;5.442;2024-01-15T11:32:04;100247.25;;;2.32;100.00
71966;BME280;59836;52.132;5.442;2024-01-15T11:37:18;100234.25;;;2.48;100.00
71966;BME280;59836;52.132;5.442;2024-01-15T11:39:45;100242.28;;;2.60;100.00
71966;BME280;59836;52.132;5.442;2024-01-15T11:42:15;100246.38;;;2.62;100.00
71966;BME280;59836;52.132;5.442;2024-01-15T11:44:42;100241.47;;;2.59;100.00
71966;BME280;59836;52.132;5.442;2024-01-15T11:47:10;100249.50;;;2.59;100.00
71966;BME280;59836;52.132;5.442;2024-01-15T11:50:02;100248.00;;;2.63;100.00
71966;BME280;59836;52.132;5.442;2024-01-15T11:52:38;100251.72;;;2.62;100.00
71966;BME280;59836;52.132;5.442;2024-01-15T11:55:16;100258.13;;;2.61;100.00
71966;BME280;59836;52.132;5.442;2024-01-15T11:57:48;100255.00;;;2.64;100.00
71966;BME280;59836;52.132;5.442;2024-01-15T12:00:17;100253.44;;;2.69;100.00
71966;BME280;59836;52.132;5.442;2024-01-15T12:02:45;100250.78;;;2.69;100.00
71966;BME280;59836;52.132;5.442;2024-01-15T12:05:13;100248.22;;;2.74;100.00
71966;BME280;59836;52.132;5.442;2024-01-15T12:07:44;100256.75;;;2.83;100.00
71966;BME280;59836;52.132;5.442;2024-01-15T12:10:16;100266.88;;;2.92;100.00
71966;BME280;59836;52.132;5.442;2024-01-15T12:15:25;100276.88;;;2.85;100.00
71966;BME280;59836;52.132;5.442;2024-01-15T12:17:54;100275.13;;;2.79;100.00
71966;BME280;59836;52.132;5.442;2024-01-15T12:20:30;100296.41;;;2.74;100.00
71966;BME280;59836;52.132;5.442;2024-01-15T12:22:58;100295.16;;;2.64;100.00
71966;BME280;59836;52.132;5.442;2024-01-15T12:25:30;100301.44;;;2.58;100.00
71966;BME280;59836;52.132;5.442;2024-01-15T12:27:58;100298.84;;;2.51;100.00
71966;BME280;59836;52.132;5.442;2024-01-15T12:30:26;100303.25;;;2.46;100.00
71966;BME280;59836;52.132;5.442;2024-01-15T12:32:53;100296.28;;;2.45;100.00
71966;BME280;59836;52.132;5.442;2024-01-15T12:35:21;100287.41;;;2.44;100.00
71966;BME280;59836;52.132;5.442;2024-01-15T12:37:47;100313.72;;;2.47;100.00
71966;BME280;59836;52.132;5.442;2024-01-15T12:40:19;100314.56;;;2.48;100.00
71966;BME280;59836;52.132;5.442;2024-01-15T12:42:46;100320.72;;;2.48;100.00
71966;BME280;59836;52.132;5.442;2024-01-15T12:45:13;100310.00;;;2.48;100.00
71966;BME280;59836;52.132;5.442;2024-01-15T12:47:41;100308.69;;;2.39;100.00
71966;BME280;59836;52.132;5.442;2024-01-15T12:50:11;100304.03;;;2.34;100.00
71966;BME280;59836;52.132;5.442;2024-01-15T12:52:45;100304.50;;;2.31;100.00
71966;BME280;59836;52.132;5.442;2024-01-15T12:55:13;100311.94;;;2.29;100.00
71966;BME280;59836;52.132;5.442;2024-01-15T12:57:40;100303.66;;;2.31;100.00
71966;BME280;59836;52.132;5.442;2024-01-15T13:00:07;100306.13;;;2.32;100.00
71966;BME280;59836;52.132;5.442;2024-01-15T13:02:39;100298.69;;;2.34;100.00
71966;BME280;59836;52.132;5.442;2024-01-15T13:05:08;100290.06;;;2.32;100.00